createdAt,value
2023-04-16T00:01:06.253Z,2.6399999999999997
2023-04-16T00:04:03.089Z,2.46
2023-04-16T00:07:00.380Z,2.56
2023-04-16T00:09:55.939Z,2.6
2023-04-16T00:12:54.479Z,2.2800000000000002
2023-04-16T00:15:53.040Z,2.1800000000000006
2023-04-16T00:18:52.596Z,2.98
2023-04-16T00:21:52.198Z,2.98
2023-04-16T00:24:52.729Z,2.3600000000000003
2023-04-16T00:27:52.220Z,3
2023-04-16T00:30:50.840Z,2.0599999999999996
2023-04-16T00:33:49.342Z,2.48
2023-04-16T00:36:44.937Z,2.7600000000000002
2023-04-16T00:39:40.478Z,2.36
2023-04-16T00:42:38.107Z,2.34
2023-04-16T00:45:34.582Z,1.98
2023-04-16T00:48:36.126Z,2.1399999999999997
2023-04-16T00:51:32.648Z,2.8000000000000003
2023-04-16T00:54:32.211Z,1.98
2023-04-16T00:57:30.806Z,2.1
2023-04-16T01:00:29.388Z,2.04
2023-04-16T01:03:32.087Z,2.6399999999999997
2023-04-16T01:06:30.481Z,1.98
2023-04-16T01:09:28.000Z,1.8800000000000001
2023-04-16T01:12:23.568Z,2.52
2023-04-16T01:15:21.177Z,2.2399999999999998
2023-04-16T01:18:18.655Z,1.98
2023-04-16T01:21:16.238Z,2.7600000000000007
2023-04-16T01:24:13.854Z,2.46
2023-04-16T01:27:11.355Z,2.16
2023-04-16T01:30:07.931Z,2.44
2023-04-16T01:33:04.465Z,3.1199999999999997
2023-04-16T01:36:01.028Z,2.7
2023-04-16T01:38:57.617Z,3.04
2023-04-16T01:41:54.145Z,2.38
2023-04-16T01:44:54.653Z,3.44
2023-04-16T01:47:52.321Z,3.04
2023-04-16T01:50:48.831Z,2.38
2023-04-16T01:53:44.329Z,2.6399999999999997
2023-04-16T01:56:42.945Z,2.88
2023-04-16T01:59:38.514Z,2.66
2023-04-16T02:02:40.162Z,2.8200000000000003
2023-04-16T02:05:37.595Z,2.54
2023-04-16T02:08:34.180Z,2.66
2023-04-16T02:11:31.750Z,2.38
2023-04-16T02:14:27.256Z,2.6399999999999997
2023-04-16T02:17:22.856Z,2.9
2023-04-16T02:20:20.378Z,3.02
2023-04-16T02:23:15.926Z,2.7600000000000007
2023-04-16T02:26:13.504Z,3.22
2023-04-16T02:29:09.280Z,3.2
2023-04-16T02:32:04.674Z,3.3199999999999994
2023-04-16T02:35:03.200Z,2.7600000000000002
2023-04-16T02:37:58.715Z,3.2
2023-04-16T02:40:54.319Z,3.4799999999999995
2023-04-16T02:43:50.912Z,3.0799999999999996
2023-04-16T02:46:46.443Z,3.04
2023-04-16T02:49:41.983Z,3.1399999999999997
2023-04-16T02:52:37.559Z,2.42
2023-04-16T02:55:33.157Z,2.6399999999999997
2023-04-16T02:58:28.688Z,2.3
2023-04-16T03:01:24.271Z,2.44
2023-04-16T03:04:19.797Z,2.7600000000000002
2023-04-16T03:07:17.378Z,3.1399999999999997
2023-04-16T03:10:13.899Z,3.0799999999999996
2023-04-16T03:13:10.470Z,2.6800000000000006
2023-04-16T03:16:08.066Z,2.5799999999999996
2023-04-16T03:19:03.540Z,2.56
2023-04-16T03:21:59.153Z,3.12
2023-04-16T03:24:54.675Z,2.92
2023-04-16T03:27:50.265Z,2.7
2023-04-16T03:30:50.879Z,3
2023-04-16T03:33:47.363Z,3.2600000000000002
2023-04-16T03:36:42.977Z,3.16
2023-04-16T03:39:38.517Z,3.34
2023-04-16T03:42:36.046Z,3.04
2023-04-16T03:45:32.660Z,3.56
2023-04-16T03:48:28.180Z,2.7400000000000007
2023-04-16T03:51:24.741Z,2.66
2023-04-16T03:54:22.867Z,2.8200000000000003
2023-04-16T03:57:18.851Z,3.5799999999999996
2023-04-16T04:00:14.397Z,3.1
2023-04-16T04:03:12.184Z,3.2400000000000007
2023-04-16T04:06:08.530Z,2.4
2023-04-16T04:09:04.104Z,3.3600000000000003
2023-04-16T04:11:59.686Z,3.66
2023-04-16T04:14:56.198Z,3.2
2023-04-16T04:17:52.816Z,7.1
2023-04-16T04:20:48.346Z,4.38
2023-04-16T04:23:43.905Z,7.480000000000001
2023-04-16T04:26:40.450Z,5.58
2023-04-16T04:29:35.998Z,4.619999999999999
2023-04-16T04:32:32.616Z,8.639999999999999
2023-04-16T04:35:28.126Z,6.08
2023-04-16T04:38:24.704Z,4.92
2023-04-16T04:41:21.257Z,4.38
2023-04-16T04:44:17.836Z,2.98
2023-04-16T04:47:13.369Z,2.6399999999999997
2023-04-16T04:50:09.943Z,2.7800000000000002
2023-04-16T04:53:09.506Z,3.54
2023-04-16T04:59:06.600Z,3.4
2023-04-16T05:02:03.220Z,3.2
2023-04-16T05:04:59.731Z,3.1
2023-04-16T05:07:55.230Z,3.1
2023-04-16T05:10:51.831Z,3.2600000000000002
2023-04-16T05:13:47.366Z,4.54
2023-04-16T05:16:43.008Z,3.6199999999999997
2023-04-16T05:19:38.486Z,3.46
2023-04-16T05:22:34.090Z,3.88
2023-04-16T05:25:29.643Z,4.840000000000001
2023-04-16T05:28:25.184Z,4.74
2023-04-16T05:31:20.883Z,4.539999999999999
2023-04-16T05:34:17.305Z,4.660000000000001
2023-04-16T05:37:13.870Z,4.1
2023-04-16T05:40:10.423Z,10.98
2023-04-16T05:43:05.973Z,13.040000000000001
2023-04-16T05:46:02.580Z,7.82
2023-04-16T05:48:59.136Z,15.8
2023-04-16T05:51:56.671Z,22.68
2023-04-16T05:54:52.192Z,5.4799999999999995
2023-04-16T05:57:47.756Z,3.62
2023-04-16T06:00:43.324Z,4
2023-04-16T06:03:39.080Z,7.82
2023-04-16T06:06:34.510Z,5.04
2023-04-16T06:09:30.088Z,8.120000000000001
2023-04-16T06:12:25.554Z,13.919999999999998
2023-04-16T06:15:21.156Z,8.459999999999999
2023-04-16T06:18:16.700Z,13.620000000000001
2023-04-16T06:21:12.283Z,6.4
2023-04-16T06:24:07.843Z,10.180000000000001
2023-04-16T06:27:03.380Z,7.12
2023-04-16T06:29:58.960Z,8.54
2023-04-16T06:32:54.566Z,3.56
2023-04-16T06:35:52.082Z,3.1399999999999997
2023-04-16T06:38:47.621Z,2.7800000000000002
2023-04-16T06:41:43.155Z,3.04
2023-04-16T06:44:38.764Z,3.2
2023-04-16T06:47:34.325Z,3.4799999999999995
2023-04-16T06:50:30.888Z,2.84
2023-04-16T06:53:26.457Z,2.22
2023-04-16T06:56:21.982Z,2.6
2023-04-16T06:59:17.536Z,2.6799999999999997
2023-04-16T07:02:13.333Z,2.9799999999999995
2023-04-16T07:05:09.668Z,2.04
2023-04-16T07:08:06.228Z,3.0199999999999996
2023-04-16T07:11:02.829Z,7.9
2023-04-16T07:13:59.416Z,23.56
2023-04-16T07:16:55.025Z,15.079999999999998
2023-04-16T07:19:51.491Z,4.779999999999999
2023-04-16T07:22:48.025Z,2.6399999999999997
2023-04-16T07:25:44.541Z,2.5599999999999996
2023-04-16T07:28:41.171Z,2.16
2023-04-16T07:31:38.781Z,3.4800000000000004
2023-04-16T07:34:34.303Z,5.64
2023-04-16T07:37:30.841Z,3.5799999999999996
2023-04-16T07:40:29.337Z,3.1
2023-04-16T07:43:25.933Z,2.84
2023-04-16T07:46:21.847Z,3.8800000000000003
2023-04-16T07:49:18.047Z,2.9
2023-04-16T07:52:14.665Z,3
2023-04-16T07:55:10.165Z,2.2600000000000002
2023-04-16T07:58:07.737Z,2.6800000000000006
2023-04-16T08:01:04.325Z,2.42
2023-04-16T08:04:00.069Z,1.92
2023-04-16T08:06:55.471Z,2.5799999999999996
2023-04-16T08:09:52.959Z,2.34
2023-04-16T08:12:49.555Z,3.3200000000000003
2023-04-16T08:15:46.158Z,2.4
2023-04-16T08:18:46.633Z,2.12
2023-04-16T08:21:43.205Z,2.72
2023-04-16T08:24:38.785Z,2.7600000000000002
2023-04-16T08:27:34.345Z,3.38
2023-04-16T08:30:30.913Z,3.3199999999999994
2023-04-16T08:33:26.422Z,2.66
2023-04-16T08:36:23.000Z,2.7199999999999998
2023-04-16T08:39:19.580Z,3.22
2023-04-16T08:42:23.156Z,2.5599999999999996
2023-04-16T08:45:19.684Z,2.2600000000000002
2023-04-16T08:48:20.200Z,3.1
2023-04-16T08:51:16.834Z,2.96
2023-04-16T08:54:24.309Z,3.1199999999999997
2023-04-16T08:57:22.846Z,3.34
2023-04-16T09:00:24.406Z,2.6799999999999997
2023-04-16T09:03:23.066Z,2.6399999999999997
2023-04-16T09:06:19.512Z,3.6199999999999997
2023-04-16T09:09:18.064Z,2.6
2023-04-16T09:12:15.625Z,3.4
2023-04-16T09:15:14.203Z,1.86
2023-04-16T09:18:11.715Z,3.06
2023-04-16T09:21:09.275Z,3.0200000000000005
2023-04-16T09:24:05.871Z,1.6800000000000002
2023-04-16T09:27:02.439Z,1.86
2023-04-16T09:30:12.092Z,2.92
2023-04-16T09:33:13.526Z,2.22
2023-04-16T09:36:21.195Z,1.8800000000000001
2023-04-16T09:39:19.562Z,2.38
2023-04-16T09:42:21.143Z,2.2399999999999998
2023-04-16T09:45:16.914Z,2.32
2023-04-16T09:48:13.253Z,1.8400000000000003
2023-04-16T09:51:08.799Z,1.3800000000000001
2023-04-16T09:54:06.399Z,1.36
2023-04-16T09:57:02.923Z,1.5399999999999998
2023-04-16T10:00:04.450Z,1.8199999999999998
2023-04-16T10:03:05.113Z,1.8199999999999998
2023-04-16T10:06:06.552Z,1.6400000000000001
2023-04-16T10:09:07.122Z,1.3399999999999999
2023-04-16T10:12:03.666Z,1.6199999999999999
2023-04-16T10:14:59.242Z,1.12
2023-04-16T10:17:57.805Z,1.98
2023-04-16T10:20:55.374Z,1.6
2023-04-16T10:23:52.917Z,1.8800000000000001
2023-04-16T10:26:51.413Z,2.98
2023-04-16T10:29:49.029Z,3.2600000000000002
2023-04-16T10:32:46.612Z,2.98
2023-04-16T10:35:52.362Z,3.72
2023-04-16T10:38:57.586Z,3.3800000000000003
2023-04-16T10:42:02.170Z,2.9799999999999995
2023-04-16T10:44:59.743Z,4.8
2023-04-16T10:47:57.369Z,3.9799999999999995
2023-04-16T10:50:56.833Z,3.4
2023-04-16T10:57:04.961Z,2.62
2023-04-16T11:00:08.412Z,3
2023-04-16T11:03:05.175Z,1.6
2023-04-16T11:06:12.538Z,2.54
2023-04-16T11:09:13.189Z,2.7600000000000002
2023-04-16T11:12:12.661Z,2.1
2023-04-16T11:15:09.176Z,2.48
2023-04-16T11:18:09.861Z,2.3200000000000003
2023-04-16T11:21:08.334Z,2.5
2023-04-16T11:24:12.858Z,6.140000000000001
2023-04-16T11:27:08.400Z,3.9
2023-04-16T11:30:06.952Z,3.16
2023-04-16T11:33:05.522Z,2.38
2023-04-16T11:36:02.102Z,2.4
2023-04-16T11:39:07.591Z,2.62
2023-04-16T11:42:03.223Z,3.4200000000000004
2023-04-16T11:45:00.752Z,2.62
2023-04-16T11:47:57.358Z,1.6800000000000002
2023-04-16T11:50:55.801Z,2.1
2023-04-16T11:53:52.451Z,2.1399999999999997
2023-04-16T11:56:49.956Z,2.1399999999999997
2023-04-16T12:00:02.208Z,1.92
2023-04-16T12:02:51.322Z,1.8
2023-04-16T12:06:01.572Z,1.5799999999999998
2023-04-16T12:09:06.128Z,2
2023-04-16T12:12:20.605Z,1.8
2023-04-16T12:15:22.146Z,1.2
2023-04-16T12:18:18.740Z,1.7599999999999998
2023-04-16T12:21:15.316Z,1.7399999999999998
2023-04-16T12:24:12.869Z,1.44
2023-04-16T12:27:10.445Z,2.3
2023-04-16T12:30:07.028Z,2.04
2023-04-16T12:33:12.558Z,1.44
2023-04-16T12:36:18.075Z,1.36
2023-04-16T12:39:14.624Z,1.6800000000000002
2023-04-16T12:42:12.180Z,1.2
2023-04-16T12:45:08.683Z,1.4
2023-04-16T12:48:05.352Z,1.7
2023-04-16T12:51:02.826Z,1.94
2023-04-16T12:53:59.398Z,2.7
2023-04-16T12:56:55.994Z,2.6800000000000006
2023-04-16T12:59:52.518Z,2.62
2023-04-16T13:02:48.237Z,2.16
2023-04-16T13:05:45.613Z,1.78
2023-04-16T13:08:42.191Z,2.04
2023-04-16T13:11:38.694Z,1.8400000000000003
2023-04-16T13:14:36.328Z,2.1799999999999997
2023-04-16T13:17:32.826Z,2.54
2023-04-16T13:20:28.431Z,2.4799999999999995
2023-04-16T13:23:23.978Z,3.54
2023-04-16T13:26:21.535Z,1.8199999999999998
2023-04-16T13:29:17.134Z,3.0599999999999996
2023-04-16T13:32:14.674Z,5.68
2023-04-16T13:35:11.204Z,3.96
2023-04-16T13:38:07.817Z,4.659999999999999
2023-04-16T13:41:04.331Z,3.3200000000000003
2023-04-16T13:44:00.911Z,2.24
2023-04-16T13:46:58.496Z,2.98
2023-04-16T13:49:55.016Z,2.2600000000000002
2023-04-16T13:52:50.549Z,3.1800000000000006
2023-04-16T13:55:51.098Z,2.92
2023-04-16T13:58:48.689Z,2.1399999999999997
2023-04-16T14:01:44.276Z,2.5799999999999996
2023-04-16T14:04:39.921Z,15.540000000000001
2023-04-16T14:07:37.355Z,13.319999999999999
2023-04-16T14:10:32.911Z,9.24
2023-04-16T14:13:29.481Z,4.260000000000001
2023-04-16T14:16:27.039Z,2.24
2023-04-16T14:19:23.586Z,2.1399999999999997
2023-04-16T14:22:19.133Z,1.3800000000000001
2023-04-16T14:25:14.674Z,1.46
2023-04-16T14:28:12.245Z,2.7
2023-04-16T14:31:09.131Z,4.82
2023-04-16T14:34:04.365Z,2.3600000000000003
2023-04-16T14:37:03.975Z,1.02
2023-04-16T14:40:00.503Z,2.0799999999999996
2023-04-16T14:42:56.038Z,1.8
2023-04-16T14:45:52.873Z,1.7399999999999998
2023-04-16T14:48:48.186Z,2.52
2023-04-16T14:51:45.714Z,2.0599999999999996
2023-04-16T14:54:41.295Z,1.98
2023-04-16T14:57:38.864Z,1.6600000000000001
2023-04-16T15:00:40.368Z,2.98
2023-04-16T15:03:38.106Z,2.06
2023-04-16T15:06:36.009Z,2.3400000000000003
2023-04-16T15:09:34.077Z,2.3200000000000003
2023-04-16T15:12:31.630Z,1.98
2023-04-16T15:15:27.185Z,2.0799999999999996
2023-04-16T15:18:24.852Z,2.46
2023-04-16T15:21:21.319Z,1.7599999999999998
2023-04-16T15:24:16.824Z,1.86
2023-04-16T15:27:14.408Z,1.3199999999999998
2023-04-16T15:30:11.994Z,2.3
2023-04-16T15:33:08.551Z,2.2
2023-04-16T15:36:06.071Z,1.7
2023-04-16T15:39:02.645Z,2.38
2023-04-16T15:42:02.991Z,2.52
2023-04-16T15:45:02.710Z,2.6
2023-04-16T15:47:58.371Z,3.22
2023-04-16T15:50:54.844Z,2.7199999999999998
2023-04-16T15:53:51.410Z,3.3
2023-04-16T15:56:48.964Z,3.3200000000000003
2023-04-16T16:00:03.192Z,3.88
2023-04-16T16:02:48.255Z,4.4
2023-04-16T16:05:46.687Z,3.4200000000000004
2023-04-16T16:08:43.193Z,3.38
2023-04-16T16:11:40.764Z,3.56
2023-04-16T16:14:36.328Z,2.7600000000000007
2023-04-16T16:17:32.864Z,3.2399999999999998
2023-04-16T16:20:29.460Z,3.2
2023-04-16T16:23:25.973Z,4.2
2023-04-16T16:26:23.557Z,2.88
2023-04-16T16:29:20.115Z,3.8200000000000003
2023-04-16T16:32:16.676Z,4.38
2023-04-16T16:35:12.232Z,4.74
2023-04-16T16:38:09.791Z,3.4
2023-04-16T16:41:06.364Z,4.1
2023-04-16T16:44:02.890Z,5.4799999999999995
2023-04-16T16:46:59.491Z,10.14
2023-04-16T16:49:55.022Z,3.7
2023-04-16T16:52:53.580Z,6.28
2023-04-16T16:55:50.158Z,6.960000000000001
2023-04-16T16:58:48.699Z,6.359999999999999
2023-04-16T17:01:45.280Z,6.12
2023-04-16T17:04:40.885Z,9.78
2023-04-16T17:07:37.417Z,11.299999999999999
2023-04-16T17:10:32.955Z,9.8
2023-04-16T17:13:32.468Z,14.280000000000001
2023-04-16T17:16:29.041Z,23.580000000000002
2023-04-16T17:19:24.596Z,18.44
2023-04-16T17:22:21.162Z,14.86
2023-04-16T17:25:17.716Z,10.86
2023-04-16T17:28:13.259Z,8.780000000000001
2023-04-16T17:31:10.821Z,5.339999999999999
2023-04-16T17:34:07.393Z,4.58
2023-04-16T17:37:03.952Z,5.56
2023-04-16T17:40:01.541Z,4.839999999999999
2023-04-16T17:42:58.044Z,19.060000000000002
2023-04-16T17:45:54.675Z,11.959999999999999
2023-04-16T17:48:51.182Z,13.86
2023-04-16T17:51:48.739Z,17.96
2023-04-16T17:54:45.317Z,16.24
2023-04-16T17:57:41.861Z,32.42
2023-04-16T18:00:42.442Z,20.24
2023-04-16T18:03:42.133Z,12.779999999999998
2023-04-16T18:06:37.532Z,12.28
2023-04-16T18:09:34.043Z,6.26
2023-04-16T18:12:32.652Z,5.76
2023-04-16T18:15:29.258Z,4.08
2023-04-16T18:18:25.795Z,4.04
2023-04-16T18:21:22.308Z,5.0600000000000005
2023-04-16T18:24:18.906Z,4.6
2023-04-16T18:27:14.450Z,4.0600000000000005
2023-04-16T18:30:19.984Z,4.4
2023-04-16T18:36:14.103Z,5.06
2023-04-16T18:39:10.636Z,5.0600000000000005
2023-04-16T18:42:06.227Z,5.12
2023-04-16T18:45:01.748Z,5.2
2023-04-16T18:47:58.344Z,4.88
2023-04-16T18:50:54.879Z,9.22
2023-04-16T18:53:51.432Z,10.219999999999999
2023-04-16T18:56:46.997Z,4.78
2023-04-16T18:59:43.517Z,3.9799999999999995
2023-04-16T19:02:41.212Z,4.9
2023-04-16T19:05:39.677Z,4.52
2023-04-16T19:08:36.198Z,5.76
2023-04-16T19:11:32.778Z,4.6
2023-04-16T19:14:29.353Z,4.8
2023-04-16T19:17:26.945Z,4.7
2023-04-16T19:20:23.450Z,4.32
2023-04-16T19:23:18.993Z,5.02
2023-04-16T19:26:15.573Z,3.7399999999999998
2023-04-16T19:29:11.367Z,4.26
2023-04-16T19:32:07.776Z,4.08
2023-04-16T19:35:04.252Z,4.18
2023-04-16T19:38:00.870Z,3.78
2023-04-16T19:40:56.361Z,2.9
2023-04-16T19:43:53.955Z,2.52
2023-04-16T19:46:49.527Z,2.7
2023-04-16T19:49:46.054Z,2.5799999999999996
2023-04-16T19:52:41.614Z,2.44
2023-04-16T19:55:43.188Z,2.8200000000000003
2023-04-16T19:58:38.711Z,3.3
2023-04-16T20:01:39.336Z,2.48
2023-04-16T20:04:35.821Z,2.38
2023-04-16T20:07:38.387Z,4.340000000000001
2023-04-16T20:10:40.937Z,3.8
2023-04-16T20:13:38.717Z,3.02
2023-04-16T20:16:38.063Z,3.34
2023-04-16T20:19:37.610Z,2.8000000000000003
2023-04-16T20:22:44.433Z,2.68
2023-04-16T20:25:41.678Z,3.5
2023-04-16T20:28:39.200Z,3.6400000000000006
2023-04-16T20:31:35.109Z,3.3199999999999994
2023-04-16T20:34:31.318Z,2.58
2023-04-16T20:37:28.896Z,2.44
2023-04-16T20:40:30.497Z,2.9
2023-04-16T20:43:29.069Z,5.239999999999999
2023-04-16T20:46:25.583Z,4.260000000000001
2023-04-16T20:49:23.119Z,3.3
2023-04-16T20:52:19.722Z,5.26
2023-04-16T20:55:17.221Z,4.040000000000001
2023-04-16T20:58:12.802Z,3.38
2023-04-16T21:01:08.413Z,2.66
2023-04-16T21:04:09.091Z,4.24
2023-04-16T21:10:20.000Z,2.54
2023-04-16T21:13:16.590Z,3.22
2023-04-16T21:16:15.117Z,5.1
2023-04-16T21:19:11.990Z,3.94
2023-04-16T21:22:13.197Z,2.94
2023-04-16T21:25:13.772Z,3.3400000000000007
2023-04-16T21:28:10.275Z,3.3600000000000003
2023-04-16T21:31:06.837Z,3.0599999999999996
2023-04-16T21:34:04.406Z,2.6399999999999997
2023-04-16T21:37:00.937Z,3.28
2023-04-16T21:40:02.530Z,2.74
2023-04-16T21:43:01.080Z,3.1
2023-04-16T21:45:58.662Z,3.3
2023-04-16T21:48:55.201Z,3.4200000000000004
2023-04-16T21:52:06.631Z,3.1
2023-04-16T21:55:09.269Z,3.1399999999999997
2023-04-16T21:58:06.813Z,3.66
2023-04-16T22:01:03.364Z,3.3800000000000003
2023-04-16T22:04:03.995Z,3.2
2023-04-16T22:07:02.500Z,3.6
2023-04-16T22:09:58.033Z,2.9
2023-04-16T22:12:54.576Z,3.1199999999999997
2023-04-16T22:15:51.150Z,2.2800000000000002
2023-04-16T22:18:47.703Z,2.38
2023-04-16T22:21:43.251Z,2.3600000000000003
2023-04-16T22:24:38.796Z,2.7800000000000002
2023-04-16T22:27:35.385Z,2.1
2023-04-16T22:30:30.930Z,1.8800000000000001
2023-04-16T22:33:28.499Z,2.1800000000000006
2023-04-16T22:36:24.043Z,2.3
2023-04-16T22:39:22.635Z,2.5
2023-04-16T22:42:18.224Z,2.2399999999999998
2023-04-16T22:45:16.756Z,2.1800000000000006
2023-04-16T22:48:13.318Z,2.3
2023-04-16T22:51:08.844Z,2.1
2023-04-16T22:54:04.450Z,2.0799999999999996
2023-04-16T22:57:01.987Z,2.0599999999999996
2023-04-16T22:59:58.526Z,1.9799999999999998
2023-04-16T23:02:55.212Z,1.7399999999999998
2023-04-16T23:05:52.699Z,1.86
2023-04-16T23:08:48.201Z,2.4
2023-04-16T23:11:43.759Z,2.1
2023-04-16T23:14:45.330Z,1.78
2023-04-16T23:20:50.411Z,1.58
2023-04-16T23:23:45.926Z,2
2023-04-16T23:26:41.547Z,1.9
2023-04-16T23:29:38.118Z,2.1
2023-04-16T23:32:33.657Z,2.2600000000000002
2023-04-16T23:35:30.208Z,2.44
2023-04-16T23:38:26.769Z,1.92
2023-04-16T23:41:23.363Z,1.7
2023-04-16T23:44:19.867Z,2.0599999999999996
2023-04-16T23:47:16.458Z,1.78
2023-04-16T23:50:12.013Z,1.6400000000000001
2023-04-16T23:53:07.576Z,1.6
2023-04-16T23:56:03.129Z,1.44
2023-04-16T23:58:58.699Z,1.6199999999999999
